Time;durP1;ratioP1;P1;durP2;ratioP2;P2;SDS_P1;SDS_P2;PMS_P1;PMS_P2;Temp;Humidity;BMP_temperature;BMP_pressure;BME280_temperature;BME280_humidity;BME280_pressure;Samples;Min_cycle;Max_cycle;Signal;HPM_P1;HPM_P2
2023/10/08 00:01:41;;;;;;;;;;;;;;;;;;5045932;28;20514;-61
2023/10/08 00:04:07;;;;;;;;;;;;;;;;;;5045253;28;20026;-60
2023/10/08 00:06:33;;;;;;;;;;;;;;;;;;5052665;28;19955;-60
2023/10/08 00:08:59;;;;;;;;;;;;;;;;;;5047583;28;19935;-60
2023/10/08 00:11:25;;;;;;;;;;;;;;;;;;5050173;28;19956;-60
2023/10/08 00:13:55;;;;;;;;;;;;;;;;;;5040172;28;19919;-60
2023/10/08 00:16:21;;;;;;;;;;;;;;;;;;5052122;28;19920;-60
2023/10/08 00:18:50;;;;;;;;;;;;;;;;;;5052334;28;19916;-60
2023/10/08 00:21:16;;;;;;;;;;;;;;;;;;5051955;28;19913;-58
2023/10/08 00:23:43;;;;;;;;;;;;;;;;;;5048782;28;19952;-59
2023/10/08 00:26:09;;;;;;;;;;;;;;;;;;5037722;28;19917;-59
2023/10/08 00:28:35;;;;;;;;;;;;;;;;;;5051793;28;19996;-59
2023/10/08 00:31:11;;;;;;;;;;;;;;;;;;5051490;28;19931;-59
2023/10/08 00:33:37;;;;;;;;;;;;;;;;;;5051872;28;19921;-59
2023/10/08 00:36:17;;;;;;;;;;;;;;;;;;5051162;28;19956;-59
2023/10/08 00:38:44;;;;;;;;;;;;;;;;;;5052207;28;19920;-59
2023/10/08 00:41:10;;;;;;;;;;;;;;;;;;5051457;28;19966;-60
2023/10/08 00:43:36;;;;;;;;;;;;;;;;;;5049029;28;19925;-59
2023/10/08 00:46:02;;;;;;;;;;;;;;;;;;5043369;28;20024;-59
2023/10/08 00:48:29;;;;;;;;;;;;;;;;;;5049230;28;19919;-59
2023/10/08 00:51:09;;;;;;;;;;;;;;;;;;5056173;28;20356;-59
2023/10/08 00:53:39;;;;;;;;;;;;;;;;;;5055210;28;20331;-58
2023/10/08 00:56:11;;;;;;;;;;;;;;;;;;5047198;28;19924;-58
2023/10/08 00:58:37;;;;;;;;;;;;;;;;;;5046441;28;19916;-59
2023/10/08 01:01:04;;;;;;;;;;;;;;;;;;5053531;28;19967;-59
2023/10/08 01:03:30;;;;;;;;;;;;;;;;;;5054837;28;20341;-58
2023/10/08 01:06:00;;;;;;;;;;;;;;;;;;5049179;28;20002;-59
2023/10/08 01:08:36;;;;;;;;;;;;;;;;;;5034272;28;19956;-59
2023/10/08 01:11:02;;;;;;;;;;;;;;;;;;5045406;28;19975;-58
2023/10/08 01:13:35;;;;;;;;;;;;;;;;;;5037988;28;20487;-58
2023/10/08 01:16:01;;;;;;;;;;;;;;;;;;5054288;28;19919;-58
2023/10/08 01:18:32;;;;;;;;;;;;;;;;;;5055742;28;20385;-58
2023/10/08 01:21:05;;;;;;;;;;;;;;;;;;5052760;28;19913;-57
2023/10/08 01:23:31;;;;;;;;;;;;;;;;;;5055750;28;19917;-58
2023/10/08 01:26:10;;;;;;;;;;;;;;;;;;5054600;28;20008;-58
2023/10/08 01:28:35;;;;;;;;;;;;;;;;;;5046570;28;19916;-58
2023/10/08 01:31:03;;;;;;;;;;;;;;;;;;5035388;28;20396;-57
2023/10/08 01:33:30;;;;;;;;;;;;;;;;;;5035697;28;19946;-58
2023/10/08 01:36:03;;;;;;;;;;;;;;;;;;5052445;28;19917;-57
2023/10/08 01:38:28;;;;;;;;;;;;;;;;;;5055259;28;19913;-57
2023/10/08 01:40:56;;;;;;;;;;;;;;;;;;5055184;28;19913;-58
2023/10/08 01:43:22;;;;;;;;;;;;;;;;;;5055598;28;20003;-57
2023/10/08 01:45:52;;;;;;;;;;;;;;;;;;5041659;28;19999;-58
2023/10/08 01:48:27;;;;;;;;;;;;;;;;;;5055377;28;19924;-59
2023/10/08 01:50:54;;;;;;;;;;;;;;;;;;5040118;28;20004;-58
2023/10/08 01:53:20;;;;;;;;;;;;;;;;;;5052205;28;19920;-58
2023/10/08 01:55:49;;;;;;;;;;;;;;;;;;5052795;28;19913;-58
2023/10/08 01:58:16;;;;;;;;;;;;;;;;;;5054587;28;19964;-58
2023/10/08 02:00:42;;;;;;;;;;;;;;;;;;5053687;28;19916;-58
2023/10/08 02:03:08;;;;;;;;;;;;;;;;;;5041119;28;19909;-58
2023/10/08 02:05:34;;;;;;;;;;;;;;;;;;5051656;28;19909;-58
2023/10/08 02:08:03;;;;;;;;;;;;;;;;;;5043961;28;19913;-58
2023/10/08 02:10:29;;;;;;;;;;;;;;;;;;5044587;28;20019;-57
2023/10/08 02:12:55;;;;;;;;;;;;;;;;;;5054995;28;19960;-58
2023/10/08 02:15:21;;;;;;;;;;;;;;;;;;5055033;28;19955;-58
2023/10/08 02:17:48;;;;;;;;;;;;;;;;;;5037064;28;19916;-58
2023/10/08 02:20:16;;;;;;;;;;;;;;;;;;5035033;28;19909;-58
2023/10/08 02:22:42;;;;;;;;;;;;;;;;;;5034549;28;19940;-60
2023/10/08 02:25:11;;;;;;;;;;;;;;;;;;5053999;28;19962;-61
2023/10/08 02:27:37;;;;;;;;;;;;;;;;;;5051198;28;19917;-61
2023/10/08 02:30:05;;;;;;;;;;;;;;;;;;5054278;28;19909;-61
2023/10/08 02:32:32;;;;;;;;;;;;;;;;;;5054153;28;19917;-60
2023/10/08 02:34:58;;;;;;;;;;;;;;;;;;5054210;28;20265;-60
2023/10/08 02:37:24;;;;;;;;;;;;;;;;;;5053967;28;19917;-61
2023/10/08 02:39:50;;;;;;;;;;;;;;;;;;5054054;28;19931;-61
2023/10/08 02:42:16;;;;;;;;;;;;;;;;;;5052872;28;19930;-61
2023/10/08 02:44:42;;;;;;;;;;;;;;;;;;5050074;28;20019;-61
2023/10/08 02:47:08;;;;;;;;;;;;;;;;;;5051875;28;19984;-61
2023/10/08 02:49:34;;;;;;;;;;;;;;;;;;5053710;28;19927;-60
2023/10/08 02:52:04;;;;;;;;;;;;;;;;;;5054310;28;19917;-60
2023/10/08 02:54:36;;;;;;;;;;;;;;;;;;5053088;28;19913;-60
2023/10/08 02:57:10;;;;;;;;;;;;;;;;;;5047131;28;20004;-61
2023/10/08 02:59:40;;;;;;;;;;;;;;;;;;5053748;28;19920;-59
2023/10/08 03:02:13;;;;;;;;;;;;;;;;;;5051810;28;19978;-60
2023/10/08 03:04:39;;;;;;;;;;;;;;;;;;5044792;28;20004;-60
2023/10/08 03:07:11;;;;;;;;;;;;;;;;;;5053820;28;19909;-61
2023/10/08 03:09:41;;;;;;;;;;;;;;;;;;5053547;28;19949;-60
2023/10/08 03:12:10;;;;;;;;;;;;;;;;;;5051105;28;19921;-60
2023/10/08 03:14:49;;;;;;;;;;;;;;;;;;5033659;28;19916;-60
2023/10/08 03:17:19;;;;;;;;;;;;;;;;;;5041797;28;19913;-61
2023/10/08 03:19:45;;;;;;;;;;;;;;;;;;5045921;28;19912;-61
2023/10/08 03:22:12;;;;;;;;;;;;;;;;;;5045138;28;20359;-60
2023/10/08 03:24:38;;;;;;;;;;;;;;;;;;5050325;28;19959;-61
2023/10/08 03:27:12;;;;;;;;;;;;;;;;;;5052839;28;19924;-60
2023/10/08 03:29:41;;;;;;;;;;;;;;;;;;5047208;28;20258;-60
2023/10/08 03:32:12;;;;;;;;;;;;;;;;;;5046358;28;19936;-58
2023/10/08 03:34:42;;;;;;;;;;;;;;;;;;5033590;28;19920;-58
2023/10/08 03:37:09;;;;;;;;;;;;;;;;;;5053200;28;19909;-58
2023/10/08 03:42:20;;;;;;;;;;;;;;;;;;5052090;28;19932;-58
2023/10/08 03:44:51;;;;;;;;;;;;;;;;;;5034080;28;20000;-58
2023/10/08 03:47:18;;;;;;;;;;;;;;;;;;5046536;28;20510;-58
2023/10/08 03:49:45;;;;;;;;;;;;;;;;;;5049237;28;19959;-57
2023/10/08 03:52:12;;;;;;;;;;;;;;;;;;5050312;28;19917;-58
2023/10/08 03:54:43;;;;;;;;;;;;;;;;;;5033424;28;19963;-57
2023/10/08 03:57:18;;;;;;;;;;;;;;;;;;5051613;28;19962;-58
2023/10/08 03:59:48;;;;;;;;;;;;;;;;;;5052675;28;20258;-57
2023/10/08 04:02:14;;;;;;;;;;;;;;;;;;5048669;28;19913;-57
2023/10/08 04:04:56;;;;;;;;;;;;;;;;;;5046422;28;20375;-57
2023/10/08 04:08:05;;;;;;;;;;;;;;;;;;5050575;28;19916;-58
2023/10/08 04:13:08;;;;;;;;;;;;;;;;;;5051374;28;19966;-58
2023/10/08 04:15:34;;;;;;;;;;;;;;;;;;5052696;28;20292;-58
2023/10/08 04:18:02;;;;;;;;;;;;;;;;;;5048686;28;19913;-57
2023/10/08 04:23:13;;;;;;;;;;;;;;;;;;5046010;28;19924;-58
2023/10/08 04:25:39;;;;;;;;;;;;;;;;;;5052269;28;19909;-58
2023/10/08 04:28:06;;;;;;;;;;;;;;;;;;5052304;28;19908;-57
2023/10/08 04:30:35;;;;;;;;;;;;;;;;;;5052074;28;19917;-58
2023/10/08 04:33:06;;;;;;;;;;;;;;;;;;5049864;28;20360;-57
2023/10/08 04:35:34;;;;;;;;;;;;;;;;;;5050815;28;20419;-58
2023/10/08 04:38:00;;;;;;;;;;;;;;;;;;5049921;28;19991;-57
2023/10/08 04:40:26;;;;;;;;;;;;;;;;;;5050002;28;19995;-58
2023/10/08 04:42:54;;;;;;;;;;;;;;;;;;5047295;28;19919;-55
2023/10/08 04:45:26;;;;;;;;;;;;;;;;;;5048084;28;19913;-58
2023/10/08 04:47:52;;;;;;;;;;;;;;;;;;5047529;28;20003;-58
2023/10/08 04:50:20;;;;;;;;;;;;;;;;;;5050574;28;19956;-59
2023/10/08 04:52:58;;;;;;;;;;;;;;;;;;5046821;28;20361;-57
2023/10/08 04:55:28;;;;;;;;;;;;;;;;;;5050172;28;19959;-58
2023/10/08 04:57:54;;;;;;;;;;;;;;;;;;5052010;28;19920;-58
2023/10/08 05:00:40;;;;;;;;;;;;;;;;;;5051589;28;20308;-57
2023/10/08 05:03:13;;;;;;;;;;;;;;;;;;5045932;28;19917;-57
2023/10/08 05:05:55;;;;;;;;;;;;;;;;;;5051213;28;19992;-57
2023/10/08 05:08:38;;;;;;;;;;;;;;;;;;5052164;28;21297;-58
2023/10/08 05:11:24;;;;;;;;;;;;;;;;;;5043021;28;19912;-57
2023/10/08 05:14:05;;;;;;;;;;;;;;;;;;5043548;28;19916;-58
2023/10/08 05:16:49;;;;;;;;;;;;;;;;;;5052012;28;19931;-58
2023/10/08 05:30:25;;;;;;;;;;;;;;;;;;5050557;28;20606;-58
2023/10/08 05:38:22;;;;;;;;;;;;;;;;;;5041734;28;20356;-57
2023/10/08 05:48:50;;;;;;;;;;;;;;;;;;5053975;28;19971;-58
2023/10/08 05:51:33;;;;;;;;;;;;;;;;;;5051090;28;19952;-60
2023/10/08 05:54:10;;;;;;;;;;;;;;;;;;5041885;28;19923;-61
2023/10/08 05:57:04;;;;;;;;;;;;;;;;;;5054444;28;19908;-60
2023/10/08 05:59:27;;;;;;;;;;;;;;;;;;5053487;28;19912;-60
2023/10/08 06:02:05;;;;;;;;;;;;;;;;;;5054111;28;19912;-61
2023/10/08 06:04:53;;;;;;;;;;;;;;;;;;5045906;28;19917;-61
2023/10/08 06:07:33;;;;;;;;;;;;;;;;;;5050965;28;19916;-60
2023/10/08 06:10:13;;;;;;;;;;;;;;;;;;5053811;28;19912;-60
2023/10/08 06:12:49;;;;;;;;;;;;;;;;;;5053388;28;19962;-61
2023/10/08 06:15:24;;;;;;;;;;;;;;;;;;5051901;28;19920;-61
2023/10/08 06:18:04;;;;;;;;;;;;;;;;;;5043391;28;19920;-60
2023/10/08 06:20:30;;;;;;;;;;;;;;;;;;5053686;28;19948;-60
2023/10/08 06:22:59;;;;;;;;;;;;;;;;;;5051184;28;19966;-60
2023/10/08 06:25:28;;;;;;;;;;;;;;;;;;5052787;28;19917;-61
2023/10/08 06:27:55;;;;;;;;;;;;;;;;;;5053269;28;19909;-60
2023/10/08 06:30:21;;;;;;;;;;;;;;;;;;5053100;28;19958;-60
2023/10/08 06:32:48;;;;;;;;;;;;;;;;;;5041978;28;19917;-61
2023/10/08 06:35:17;;;;;;;;;;;;;;;;;;5047113;28;19974;-61
2023/10/08 06:37:44;;;;;;;;;;;;;;;;;;5053469;28;19913;-60
2023/10/08 06:40:36;;;;;;;;;;;;;;;;;;5050844;28;19919;-59
2023/10/08 06:42:57;;;;;;;;;;;;;;;;;;5052302;28;20351;-59
2023/10/08 06:45:22;;;;;;;;;;;;;;;;;;5044055;28;20088;-61
2023/10/08 06:47:48;;;;;;;;;;;;;;;;;;5044615;28;20003;-60
2023/10/08 06:50:15;;;;;;;;;;;;;;;;;;5050517;28;19966;-60
2023/10/08 06:52:43;;;;;;;;;;;;;;;;;;5048163;28;19929;-61
2023/10/08 06:55:12;;;;;;;;;;;;;;;;;;5051120;28;19921;-60
2023/10/08 06:57:39;;;;;;;;;;;;;;;;;;5045559;28;19952;-60
2023/10/08 07:00:12;;;;;;;;;;;;;;;;;;5051340;28;19921;-60
2023/10/08 07:02:39;;;;;;;;;;;;;;;;;;5048048;28;19978;-61
2023/10/08 07:05:09;;;;;;;;;;;;;;;;;;5044315;28;19909;-60
2023/10/08 07:07:39;;;;;;;;;;;;;;;;;;5050997;28;19919;-60
2023/10/08 07:10:05;;;;;;;;;;;;;;;;;;5039820;28;20384;-60
2023/10/08 07:12:35;;;;;;;;;;;;;;;;;;5040664;28;19960;-60
2023/10/08 07:15:03;;;;;;;;;;;;;;;;;;5039990;28;19916;-60
2023/10/08 07:17:40;;;;;;;;;;;;;;;;;;5049184;28;20794;-60
2023/10/08 07:20:12;;;;;;;;;;;;;;;;;;5044117;28;19925;-60
2023/10/08 07:22:39;;;;;;;;;;;;;;;;;;5048783;28;20292;-60
2023/10/08 07:25:08;;;;;;;;;;;;;;;;;;5046947;28;19917;-61
2023/10/08 07:27:37;;;;;;;;;;;;;;;;;;5052803;28;19908;-60
2023/10/08 07:30:10;;;;;;;;;;;;;;;;;;5048427;28;19931;-61
2023/10/08 07:32:38;;;;;;;;;;;;;;;;;;5037049;28;19943;-63
2023/10/08 07:35:24;;;;;;;;;;;;;;;;;;5050330;28;20311;-60
2023/10/08 07:37:51;;;;;;;;;;;;;;;;;;5050020;28;19936;-60
2023/10/08 07:40:17;;;;;;;;;;;;;;;;;;5047504;28;19912;-60
2023/10/08 07:42:43;;;;;;;;;;;;;;;;;;5039618;28;20061;-61
2023/10/08 07:45:10;;;;;;;;;;;;;;;;;;5050986;28;19935;-60
2023/10/08 07:47:35;;;;;;;;;;;;;;;;;;5050251;28;20715;-60
2023/10/08 07:50:03;;;;;;;;;;;;;;;;;;5047843;28;19921;-61
2023/10/08 07:52:29;;;;;;;;;;;;;;;;;;5047010;28;19916;-61
2023/10/08 07:54:55;;;;;;;;;;;;;;;;;;5044723;28;19928;-60
2023/10/08 07:57:26;;;;;;;;;;;;;;;;;;5045634;28;19948;-60
2023/10/08 07:59:54;;;;;;;;;;;;;;;;;;5048694;28;19923;-59
2023/10/08 08:02:23;;;;;;;;;;;;;;;;;;5048722;28;19924;-60
2023/10/08 08:04:50;;;;;;;;;;;;;;;;;;5051783;28;19964;-61
2023/10/08 08:07:16;;;;;;;;;;;;;;;;;;5042861;28;20361;-60
2023/10/08 08:09:44;;;;;;;;;;;;;;;;;;5046900;28;19960;-61
2023/10/08 08:12:11;;;;;;;;;;;;;;;;;;5053288;28;20249;-59
2023/10/08 08:14:38;;;;;;;;;;;;;;;;;;5051855;28;20410;-59
2023/10/08 08:17:13;;;;;;;;;;;;;;;;;;5057146;28;19923;-59
2023/10/08 08:19:39;;;;;;;;;;;;;;;;;;5050953;28;19913;-59
2023/10/08 08:22:05;;;;;;;;;;;;;;;;;;5048827;28;19975;-59
2023/10/08 08:24:35;;;;;;;;;;;;;;;;;;5049180;28;20377;-59
2023/10/08 08:27:07;;;;;;;;;;;;;;;;;;5035376;28;19919;-59
2023/10/08 08:29:44;;;;;;;;;;;;;;;;;;5041447;28;19931;-59
2023/10/08 08:32:12;;;;;;;;;;;;;;;;;;5049330;28;20015;-59
2023/10/08 08:34:43;;;;;;;;;;;;;;;;;;5051257;28;19920;-59
2023/10/08 08:37:09;;;;;;;;;;;;;;;;;;5048040;28;19925;-59
2023/10/08 08:39:36;;;;;;;;;;;;;;;;;;5050774;28;19994;-59
2023/10/08 08:42:02;;;;;;;;;;;;;;;;;;5043880;28;19912;-59
2023/10/08 08:44:31;;;;;;;;;;;;;;;;;;5051192;28;19916;-59
2023/10/08 08:46:58;;;;;;;;;;;;;;;;;;5046447;28;19913;-59
2023/10/08 08:49:23;;;;;;;;;;;;;;;;;;5043755;28;19912;-59
2023/10/08 08:51:53;;;;;;;;;;;;;;;;;;5050304;28;20442;-59
2023/10/08 08:54:20;;;;;;;;;;;;;;;;;;5040865;28;19916;-59
2023/10/08 08:56:46;;;;;;;;;;;;;;;;;;5034467;28;19913;-59
2023/10/08 08:59:12;;;;;;;;;;;;;;;;;;5051587;28;19916;-59
2023/10/08 09:01:38;;;;;;;;;;;;;;;;;;5043556;28;20023;-59
2023/10/08 09:04:07;;;;;;;;;;;;;;;;;;5045976;28;19913;-59
2023/10/08 09:06:33;;;;;;;;;;;;;;;;;;5040392;28;20031;-59
2023/10/08 09:09:11;;;;;;;;;;;;;;;;;;5041924;28;19921;-59
2023/10/08 09:11:40;;;;;;;;;;;;;;;;;;5045267;28;19920;-60
2023/10/08 09:14:06;;;;;;;;;;;;;;;;;;5047350;28;19916;-59
2023/10/08 09:16:33;;;;;;;;;;;;;;;;;;5047116;28;19971;-59
2023/10/08 09:19:00;;;;;;;;;;;;;;;;;;5048625;28;20026;-60
2023/10/08 09:21:26;;;;;;;;;;;;;;;;;;5049869;28;19916;-60
2023/10/08 09:23:54;;;;;;;;;;;;;;;;;;5052622;28;19971;-59
2023/10/08 09:26:20;;;;;;;;;;;;;;;;;;5049984;28;19923;-60
2023/10/08 09:28:49;;;;;;;;;;;;;;;;;;5054723;28;19909;-60
2023/10/08 09:31:17;;;;;;;;;;;;;;;;;;5048262;28;19932;-56
2023/10/08 09:33:43;;;;;;;;;;;;;;;;;;5052189;28;19913;-57
2023/10/08 09:36:18;;;;;;;;;;;;;;;;;;5052434;28;19913;-57
2023/10/08 09:38:44;;;;;;;;;;;;;;;;;;5054045;28;20333;-58
2023/10/08 09:41:09;;;;;;;;;;;;;;;;;;5050775;28;19995;-57
2023/10/08 09:43:36;;;;;;;;;;;;;;;;;;5048546;28;19936;-57
2023/10/08 09:46:05;;;;;;;;;;;;;;;;;;5045054;28;19975;-58
2023/10/08 09:48:31;;;;;;;;;;;;;;;;;;5042212;28;19971;-57
2023/10/08 09:50:57;;;;;;;;;;;;;;;;;;5050678;28;19967;-57
2023/10/08 09:53:24;;;;;;;;;;;;;;;;;;5049443;28;19958;-57
2023/10/08 09:55:49;;;;;;;;;;;;;;;;;;5050272;28;19990;-57
2023/10/08 09:58:16;;;;;;;;;;;;;;;;;;5053627;28;19951;-57
2023/10/08 10:00:44;;;;;;;;;;;;;;;;;;5052388;28;20339;-57
2023/10/08 10:03:12;;;;;;;;;;;;;;;;;;5043026;28;20040;-57
2023/10/08 10:05:38;;;;;;;;;;;;;;;;;;5049561;28;20051;-56
2023/10/08 10:08:05;;;;;;;;;;;;;;;;;;5045219;28;20050;-58
2023/10/08 10:10:31;;;;;;;;;;;;;;;;;;5044593;28;19917;-58
2023/10/08 10:12:59;;;;;;;;;;;;;;;;;;5049323;28;20004;-57
2023/10/08 10:15:25;;;;;;;;;;;;;;;;;;5052170;28;19913;-58
2023/10/08 10:17:50;;;;;;;;;;;;;;;;;;5044643;28;20006;-58
2023/10/08 10:20:16;;;;;;;;;;;;;;;;;;5044764;28;19921;-57
2023/10/08 10:22:43;;;;;;;;;;;;;;;;;;5048641;28;19932;-57
2023/10/08 10:25:17;;;;;;;;;;;;;;;;;;5048060;28;19931;-57
2023/10/08 10:27:43;;;;;;;;;;;;;;;;;;5046303;28;20331;-56
2023/10/08 10:30:08;;;;;;;;;;;;;;;;;;5049364;28;20044;-56
2023/10/08 10:32:34;;;;;;;;;;;;;;;;;;5048687;28;19928;-59
2023/10/08 10:35:03;;;;;;;;;;;;;;;;;;5045455;28;19997;-60
2023/10/08 10:37:40;;;;;;;;;;;;;;;;;;5049278;28;19932;-60
2023/10/08 10:40:10;;;;;;;;;;;;;;;;;;5050181;28;20390;-59
2023/10/08 10:42:42;;;;;;;;;;;;;;;;;;5049550;28;20270;-60
2023/10/08 10:45:10;;;;;;;;;;;;;;;;;;5051464;28;19963;-60
2023/10/08 10:47:45;;;;;;;;;;;;;;;;;;5051044;28;20689;-60
2023/10/08 10:50:31;;;;;;;;;;;;;;;;;;5049126;28;19951;-59
2023/10/08 10:52:57;;;;;;;;;;;;;;;;;;5051118;28;19924;-60
2023/10/08 10:55:31;;;;;;;;;;;;;;;;;;5050617;28;19912;-60
2023/10/08 10:58:15;;;;;;;;;;;;;;;;;;5050590;28;20003;-60
2023/10/08 11:03:16;;;;;;;;;;;;;;;;;;5046614;28;19919;-58
2023/10/08 11:05:47;;;;;;;;;;;;;;;;;;5049968;28;20748;-59
2023/10/08 11:08:14;;;;;;;;;;;;;;;;;;5049539;28;19999;-60
2023/10/08 11:10:46;;;;;;;;;;;;;;;;;;5051387;28;19920;-61
2023/10/08 11:13:15;;;;;;;;;;;;;;;;;;5047347;28;19920;-60
2023/10/08 11:15:41;;;;;;;;;;;;;;;;;;5047454;28;19967;-60
2023/10/08 11:18:08;;;;;;;;;;;;;;;;;;5050356;28;20345;-60
2023/10/08 11:20:39;;;;;;;;;;;;;;;;;;5046768;28;20727;-60
2023/10/08 11:23:17;;;;;;;;;;;;;;;;;;5047517;28;19921;-60
2023/10/08 11:25:43;;;;;;;;;;;;;;;;;;5048032;28;19920;-60
2023/10/08 11:28:11;;;;;;;;;;;;;;;;;;5046960;28;19974;-60
2023/10/08 11:30:42;;;;;;;;;;;;;;;;;;5049119;28;20339;-60
2023/10/08 11:33:09;;;;;;;;;;;;;;;;;;5048864;28;19921;-59
2023/10/08 11:35:35;;;;;;;;;;;;;;;;;;5048583;28;19921;-61
2023/10/08 11:38:03;;;;;;;;;;;;;;;;;;5049373;28;19913;-59
2023/10/08 11:40:28;;;;;;;;;;;;;;;;;;5047399;28;19913;-60
2023/10/08 11:42:56;;;;;;;;;;;;;;;;;;5050093;28;19971;-60
2023/10/08 11:45:38;;;;;;;;;;;;;;;;;;5048836;28;19920;-61
2023/10/08 11:48:11;;;;;;;;;;;;;;;;;;5046701;28;19959;-60
2023/10/08 11:50:38;;;;;;;;;;;;;;;;;;5046608;28;19970;-58
2023/10/08 11:53:05;;;;;;;;;;;;;;;;;;5047237;28;20355;-59
2023/10/08 11:55:35;;;;;;;;;;;;;;;;;;5048086;28;19914;-60
2023/10/08 11:58:01;;;;;;;;;;;;;;;;;;5047660;28;19958;-60
2023/10/08 12:00:27;;;;;;;;;;;;;;;;;;5047667;28;20054;-60
2023/10/08 12:02:55;;;;;;;;;;;;;;;;;;5049220;28;19912;-60
2023/10/08 12:05:24;;;;;;;;;;;;;;;;;;5050061;28;19955;-59
2023/10/08 12:07:50;;;;;;;;;;;;;;;;;;5045288;28;20353;-60
2023/10/08 12:10:21;;;;;;;;;;;;;;;;;;5047139;28;19920;-60
2023/10/08 12:12:48;;;;;;;;;;;;;;;;;;5047407;28;19983;-60
2023/10/08 12:15:19;;;;;;;;;;;;;;;;;;5047989;28;19917;-60
2023/10/08 12:17:52;;;;;;;;;;;;;;;;;;5050601;28;19912;-60
2023/10/08 12:20:26;;;;;;;;;;;;;;;;;;5050002;28;19924;-58
2023/10/08 12:22:52;;;;;;;;;;;;;;;;;;5046059;28;19920;-58
2023/10/08 12:25:18;;;;;;;;;;;;;;;;;;5048620;28;19920;-58
2023/10/08 12:27:44;;;;;;;;;;;;;;;;;;5049446;28;19959;-58
2023/10/08 12:30:10;;;;;;;;;;;;;;;;;;5044608;28;19917;-57
2023/10/08 12:32:40;;;;;;;;;;;;;;;;;;5039283;28;19984;-59
2023/10/08 12:35:12;;;;;;;;;;;;;;;;;;5044891;28;20008;-58
2023/10/08 12:37:38;;;;;;;;;;;;;;;;;;5048097;28;19929;-58
2023/10/08 12:40:11;;;;;;;;;;;;;;;;;;5046141;28;20297;-58
2023/10/08 12:42:44;;;;;;;;;;;;;;;;;;5048708;28;20282;-60
2023/10/08 12:45:12;;;;;;;;;;;;;;;;;;5047030;28;20012;-60
2023/10/08 12:47:38;;;;;;;;;;;;;;;;;;5048141;28;19940;-58
2023/10/08 12:50:07;;;;;;;;;;;;;;;;;;5041986;28;20388;-58
2023/10/08 12:52:34;;;;;;;;;;;;;;;;;;5047582;28;20004;-60
2023/10/08 12:55:03;;;;;;;;;;;;;;;;;;5048792;28;20007;-59
2023/10/08 12:57:33;;;;;;;;;;;;;;;;;;5044967;28;20288;-59
2023/10/08 12:59:59;;;;;;;;;;;;;;;;;;5047152;28;19921;-58
2023/10/08 13:02:28;;;;;;;;;;;;;;;;;;5042860;28;19995;-56
2023/10/08 13:04:54;;;;;;;;;;;;;;;;;;5041980;28;20330;-58
2023/10/08 13:07:21;;;;;;;;;;;;;;;;;;5046773;28;19959;-57
2023/10/08 13:09:47;;;;;;;;;;;;;;;;;;5045671;28;19922;-56
2023/10/08 13:12:15;;;;;;;;;;;;;;;;;;5046341;28;19952;-58
2023/10/08 13:14:41;;;;;;;;;;;;;;;;;;5049365;28;19917;-59
2023/10/08 13:17:10;;;;;;;;;;;;;;;;;;5050248;28;20430;-56
2023/10/08 13:19:36;;;;;;;;;;;;;;;;;;5048979;28;20356;-56
2023/10/08 13:22:06;;;;;;;;;;;;;;;;;;5048474;28;19998;-56
2023/10/08 13:24:32;;;;;;;;;;;;;;;;;;5042252;28;19917;-57
2023/10/08 13:26:58;;;;;;;;;;;;;;;;;;5046343;28;19959;-57
2023/10/08 13:29:26;;;;;;;;;;;;;;;;;;5046732;28;20533;-58
2023/10/08 13:31:54;;;;;;;;;;;;;;;;;;5046323;28;19982;-57
2023/10/08 13:34:21;;;;;;;;;;;;;;;;;;5044927;28;19921;-56
2023/10/08 13:36:49;;;;;;;;;;;;;;;;;;5049337;28;19913;-57
2023/10/08 13:39:18;;;;;;;;;;;;;;;;;;5048947;28;19983;-58
2023/10/08 13:41:47;;;;;;;;;;;;;;;;;;5047563;28;19916;-57
2023/10/08 13:44:13;;;;;;;;;;;;;;;;;;5049745;28;19920;-57
2023/10/08 13:46:43;;;;;;;;;;;;;;;;;;5048953;28;19944;-57
2023/10/08 13:49:10;;;;;;;;;;;;;;;;;;5049624;28;20664;-57
2023/10/08 13:51:37;;;;;;;;;;;;;;;;;;5044962;28;19916;-56
2023/10/08 13:54:06;;;;;;;;;;;;;;;;;;5047534;28;19996;-58
2023/10/08 13:56:32;;;;;;;;;;;;;;;;;;5049642;28;19917;-58
2023/10/08 13:59:31;;;;;;;;;;;;;;;;;;5051884;28;19960;-57
2023/10/08 14:01:54;;;;;;;;;;;;;;;;;;5046368;28;20004;-59
2023/10/08 14:04:23;;;;;;;;;;;;;;;;;;5050035;28;19920;-59
2023/10/08 14:06:52;;;;;;;;;;;;;;;;;;5050587;28;19921;-58
2023/10/08 14:09:22;;;;;;;;;;;;;;;;;;5050657;28;19917;-59
2023/10/08 14:11:50;;;;;;;;;;;;;;;;;;5051573;28;20199;-60
2023/10/08 14:14:17;;;;;;;;;;;;;;;;;;5046454;28;19920;-59
2023/10/08 14:16:43;;;;;;;;;;;;;;;;;;5051635;28;19925;-60
2023/10/08 14:19:12;;;;;;;;;;;;;;;;;;5052039;28;19920;-59
2023/10/08 14:21:48;;;;;;;;;;;;;;;;;;5052216;28;19916;-59
2023/10/08 14:24:15;;;;;;;;;;;;;;;;;;5042424;28;19931;-60
2023/10/08 14:26:42;;;;;;;;;;;;;;;;;;5047645;28;20013;-60
2023/10/08 14:29:10;;;;;;;;;;;;;;;;;;5050803;28;20377;-59
2023/10/08 14:31:38;;;;;;;;;;;;;;;;;;5049323;28;20367;-59
2023/10/08 14:44:56;;;;;;;;;;;;;;;;;;5052762;28;19924;-63
2023/10/08 14:47:22;;;;;;;;;;;;;;;;;;5051168;28;19913;-61
2023/10/08 14:49:48;;;;;;;;;;;;;;;;;;5058681;28;19951;-61
2023/10/08 14:52:14;;;;;;;;;;;;;;;;;;5054031;28;20035;-62
2023/10/08 14:54:41;;;;;;;;;;;;;;;;;;5053077;28;20415;-61
2023/10/08 14:57:06;;;;;;;;;;;;;;;;;;5049770;28;20383;-62
2023/10/08 14:59:32;;;;;;;;;;;;;;;;;;5052490;28;19933;-61
2023/10/08 15:01:58;;;;;;;;;;;;;;;;;;5051835;28;19966;-61
2023/10/08 15:04:26;;;;;;;;;;;;;;;;;;5041603;28;19967;-61
2023/10/08 15:06:51;;;;;;;;;;;;;;;;;;5047441;28;19912;-61
2023/10/08 15:09:23;;;;;;;;;;;;;;;;;;5050772;28;19920;-61
2023/10/08 15:11:51;;;;;;;;;;;;;;;;;;5050574;28;19928;-62
2023/10/08 15:14:18;;;;;;;;;;;;;;;;;;5043676;28;19913;-61
2023/10/08 15:16:46;;;;;;;;;;;;;;;;;;5047848;28;20415;-61
2023/10/08 15:19:12;;;;;;;;;;;;;;;;;;5047753;28;19912;-61
2023/10/08 15:21:39;;;;;;;;;;;;;;;;;;5051918;28;19963;-61
2023/10/08 15:24:13;;;;;;;;;;;;;;;;;;5047983;28;19917;-61
2023/10/08 15:26:39;;;;;;;;;;;;;;;;;;5044555;28;19913;-61
2023/10/08 15:29:05;;;;;;;;;;;;;;;;;;5046002;28;20022;-61
2023/10/08 15:31:31;;;;;;;;;;;;;;;;;;5051753;28;20371;-61
2023/10/08 15:33:57;;;;;;;;;;;;;;;;;;5047978;28;19963;-60
2023/10/08 15:36:25;;;;;;;;;;;;;;;;;;5051473;28;19985;-61
2023/10/08 15:38:51;;;;;;;;;;;;;;;;;;5049610;28;20043;-60
2023/10/08 15:41:19;;;;;;;;;;;;;;;;;;5048573;28;20127;-62
2023/10/08 15:43:46;;;;;;;;;;;;;;;;;;5051045;28;20265;-61
2023/10/08 15:46:12;;;;;;;;;;;;;;;;;;5052293;28;19916;-61
2023/10/08 15:48:38;;;;;;;;;;;;;;;;;;5051938;28;19944;-61
2023/10/08 15:51:05;;;;;;;;;;;;;;;;;;5051801;28;20023;-61
2023/10/08 15:53:31;;;;;;;;;;;;;;;;;;5051343;28;19928;-61
2023/10/08 15:55:57;;;;;;;;;;;;;;;;;;5040394;28;20063;-61
2023/10/08 15:58:22;;;;;;;;;;;;;;;;;;5048985;28;19956;-61
2023/10/08 16:00:48;;;;;;;;;;;;;;;;;;5048363;28;19920;-61
2023/10/08 16:03:17;;;;;;;;;;;;;;;;;;5052113;28;19931;-61
2023/10/08 16:05:43;;;;;;;;;;;;;;;;;;5049974;28;20428;-61
2023/10/08 16:08:09;;;;;;;;;;;;;;;;;;5049616;28;20016;-61
2023/10/08 16:10:35;;;;;;;;;;;;;;;;;;5046977;28;19959;-61
2023/10/08 16:13:01;;;;;;;;;;;;;;;;;;5048728;28;20395;-60
2023/10/08 16:15:27;;;;;;;;;;;;;;;;;;5046000;28;19921;-61
2023/10/08 16:17:53;;;;;;;;;;;;;;;;;;5044220;28;19940;-61
2023/10/08 16:20:21;;;;;;;;;;;;;;;;;;5050637;28;19923;-61
2023/10/08 16:22:49;;;;;;;;;;;;;;;;;;5050739;28;20266;-58
2023/10/08 16:25:15;;;;;;;;;;;;;;;;;;5048945;28;20439;-58
2023/10/08 16:27:47;;;;;;;;;;;;;;;;;;5051067;28;19917;-57
2023/10/08 16:30:15;;;;;;;;;;;;;;;;;;5051366;28;19913;-58
2023/10/08 16:32:42;;;;;;;;;;;;;;;;;;5052149;28;19920;-57
2023/10/08 16:35:08;;;;;;;;;;;;;;;;;;5049110;28;20047;-58
2023/10/08 16:37:34;;;;;;;;;;;;;;;;;;5052240;28;19955;-58
2023/10/08 16:40:00;;;;;;;;;;;;;;;;;;5051703;28;19991;-57
2023/10/08 16:42:26;;;;;;;;;;;;;;;;;;5052496;28;19935;-57
2023/10/08 16:44:52;;;;;;;;;;;;;;;;;;5051988;28;19917;-58
2023/10/08 16:47:18;;;;;;;;;;;;;;;;;;5048238;28;19943;-59
2023/10/08 16:49:44;;;;;;;;;;;;;;;;;;5036052;28;20012;-57
2023/10/08 16:52:10;;;;;;;;;;;;;;;;;;5048373;28;20442;-57
2023/10/08 16:54:36;;;;;;;;;;;;;;;;;;5051115;28;20010;-58
2023/10/08 16:57:04;;;;;;;;;;;;;;;;;;5050935;28;19912;-58
2023/10/08 16:59:30;;;;;;;;;;;;;;;;;;5048357;28;19952;-59
2023/10/08 17:01:56;;;;;;;;;;;;;;;;;;5046977;28;19972;-57
2023/10/08 17:04:22;;;;;;;;;;;;;;;;;;5045630;28;19919;-57
2023/10/08 17:06:49;;;;;;;;;;;;;;;;;;5045747;28;19917;-57
2023/10/08 17:09:16;;;;;;;;;;;;;;;;;;5049865;28;19916;-58
2023/10/08 17:11:45;;;;;;;;;;;;;;;;;;5050086;28;19917;-58
2023/10/08 17:14:11;;;;;;;;;;;;;;;;;;5047637;28;19920;-57
2023/10/08 17:16:37;;;;;;;;;;;;;;;;;;5046509;28;19913;-59
2023/10/08 17:19:03;;;;;;;;;;;;;;;;;;5045846;28;20349;-58
2023/10/08 17:21:29;;;;;;;;;;;;;;;;;;5044617;28;19952;-58
2023/10/08 17:23:55;;;;;;;;;;;;;;;;;;5047672;28;20293;-57
2023/10/08 17:26:21;;;;;;;;;;;;;;;;;;5041690;28;19962;-57
2023/10/08 17:28:47;;;;;;;;;;;;;;;;;;5050501;28;19913;-58
2023/10/08 17:31:13;;;;;;;;;;;;;;;;;;5046971;28;19956;-60
2023/10/08 17:33:41;;;;;;;;;;;;;;;;;;5053766;28;20284;-60
2023/10/08 17:36:07;;;;;;;;;;;;;;;;;;5040708;28;19940;-60
2023/10/08 17:38:33;;;;;;;;;;;;;;;;;;5052613;28;19971;-60
2023/10/08 17:41:00;;;;;;;;;;;;;;;;;;5053666;28;19983;-60
2023/10/08 17:43:26;;;;;;;;;;;;;;;;;;5054870;28;19909;-59